createdAt,value
2019-04-22T00:00:17.989Z,50.76
2019-04-22T00:03:27.407Z,51.74
2019-04-22T00:06:50.052Z,51.89
2019-04-22T00:10:04.902Z,51.74
2019-04-22T00:13:06.683Z,51.42
2019-04-22T00:16:07.317Z,52.33
2019-04-22T00:19:28.928Z,52.38
2019-04-22T00:22:27.449Z,51.96
2019-04-22T00:25:34.434Z,52.88
2019-04-22T00:28:43.991Z,52.85
2019-04-22T00:31:45.992Z,52.33
2019-04-22T00:34:57.681Z,51.27
2019-04-22T00:38:03.737Z,52.24
2019-04-22T00:41:17.029Z,52.29
2019-04-22T00:44:21.881Z,52.13
2019-04-22T00:47:24.946Z,52.57
2019-04-22T00:53:35.829Z,53.52
2019-04-22T00:56:40.976Z,52.87
2019-04-22T00:59:45.813Z,53.25
2019-04-22T01:02:59.265Z,54.07
2019-04-22T01:05:56.758Z,54.35
2019-04-22T01:09:07.734Z,54.88
2019-04-22T01:12:15.518Z,54.71
2019-04-22T01:15:26.127Z,55.25
2019-04-22T01:18:23.430Z,55.24
2019-04-22T01:21:36.923Z,55.28
2019-04-22T01:24:32.326Z,55.24
2019-04-22T01:27:34.477Z,55.97
2019-04-22T01:30:38.389Z,55.98
2019-04-22T01:33:42.061Z,55.82
2019-04-22T01:36:57.775Z,56.02
2019-04-22T01:40:16.717Z,55.41
2019-04-22T01:43:25.095Z,54.91
2019-04-22T01:46:32.345Z,54.32
2019-04-22T01:49:36.198Z,54.26
2019-04-22T01:52:38.503Z,54.99
2019-04-22T01:55:45.471Z,55.33
2019-04-22T01:58:48.286Z,55.84
2019-04-22T02:02:00.522Z,54.99
2019-04-22T02:05:10.596Z,55.29
2019-04-22T02:08:14.804Z,55.59
2019-04-22T02:14:29.871Z,56.66
2019-04-22T02:17:38.305Z,56.03
2019-04-22T02:20:35.875Z,56.08
2019-04-22T02:26:47.031Z,57.20
2019-04-22T02:29:52.262Z,57.50
2019-04-22T02:36:27.866Z,58.23
2019-04-22T02:39:20.226Z,57.92
2019-04-22T02:42:16.544Z,57.62
2019-04-22T02:45:42.480Z,57.75
2019-04-22T02:48:53.764Z,58.31
2019-04-22T02:51:36.648Z,57.92
2019-04-22T02:58:14.167Z,58.16
2019-04-22T03:01:13.538Z,58.06
2019-04-22T03:04:16.683Z,59.01
2019-04-22T03:07:09.095Z,58.85
2019-04-22T03:10:29.841Z,58.22
2019-04-22T03:13:38.258Z,58.44
2019-04-22T03:22:53.711Z,58.78
2019-04-22T03:28:54.817Z,59.32
2019-04-22T03:38:20.232Z,59.07
2019-04-22T03:41:39.362Z,59.47
2019-04-22T03:47:41.505Z,58.71
2019-04-22T03:50:36.564Z,59.10
2019-04-22T03:54:02.784Z,59.07
2019-04-22T04:00:25.044Z,59.53
2019-04-22T04:03:19.087Z,59.65
2019-04-22T04:06:17.982Z,60.50
2019-04-22T04:09:23.936Z,60.18
2019-04-22T04:12:28.664Z,60.34
2019-04-22T04:15:34.376Z,60.07
2019-04-22T04:22:00.368Z,60.59
2019-04-22T04:25:20.997Z,60.44
2019-04-22T04:28:31.610Z,61.11
2019-04-22T04:34:31.137Z,60.66
2019-04-22T04:37:42.434Z,61.06
2019-04-22T04:43:50.328Z,61.60
2019-04-22T04:46:51.851Z,62.00
2019-04-22T04:53:06.341Z,61.70
2019-04-22T04:56:17.655Z,61.15
2019-04-22T04:59:30.712Z,61.25
2019-04-22T05:02:22.621Z,60.78
2019-04-22T05:08:52.580Z,61.90
2019-04-22T05:11:49.919Z,62.87
2019-04-22T05:14:44.641Z,62.52
2019-04-22T05:21:04.779Z,63.28
2019-04-22T05:24:06.662Z,63.37
2019-04-22T05:27:05.335Z,63.22
2019-04-22T05:33:18.982Z,62.33
2019-04-22T05:36:20.725Z,63.67
2019-04-22T05:39:21.526Z,62.99
2019-04-22T05:42:28.420Z,62.79
2019-04-22T05:45:40.339Z,62.11
2019-04-22T05:48:51.982Z,60.73
2019-04-22T05:51:48.138Z,61.07
2019-04-22T05:55:05.305Z,61.75
2019-04-22T05:58:02.827Z,61.62
2019-04-22T06:04:19.785Z,61.62
2019-04-22T06:07:22.048Z,57.80
2019-04-22T06:10:39.255Z,52.75
2019-04-22T06:13:38.937Z,52.14
2019-04-22T06:16:50.424Z,51.96
2019-04-22T06:19:57.658Z,46.04
2019-04-22T06:29:19.606Z,42.71
2019-04-22T06:35:36.273Z,39.61
2019-04-22T06:38:40.433Z,36.66
2019-04-22T06:41:47.916Z,33.15
2019-04-22T06:44:51.648Z,32.22
2019-04-22T06:51:05.147Z,35.68
2019-04-22T06:54:07.755Z,36.04
2019-04-22T06:57:11.622Z,36.47
2019-04-22T07:00:24.679Z,37.39
2019-04-22T07:09:41.424Z,37.89
2019-04-22T07:12:48.606Z,34.34
2019-04-22T07:16:04.000Z,36.16
2019-04-22T07:19:01.920Z,35.89
2019-04-22T07:25:10.147Z,36.57
2019-04-22T07:28:15.691Z,35.01
2019-04-22T07:31:21.096Z,34.72
2019-04-22T07:34:36.724Z,36.36
2019-04-22T07:44:10.287Z,34.99
2019-04-22T07:47:04.829Z,34.33
2019-04-22T07:50:08.402Z,33.50
2019-04-22T07:53:10.485Z,33.08
2019-04-22T07:56:21.409Z,34.76
2019-04-22T07:59:30.615Z,34.31
2019-04-22T08:02:32.815Z,32.92
2019-04-22T08:05:46.015Z,31.38
2019-04-22T08:08:45.979Z,33.16
2019-04-22T08:12:04.045Z,32.27
2019-04-22T08:14:56.453Z,32.76
2019-04-22T08:18:17.686Z,33.62
2019-04-22T08:21:13.695Z,32.01
2019-04-22T08:24:18.475Z,32.14
2019-04-22T08:27:15.271Z,31.49
2019-04-22T08:33:35.450Z,30.68
2019-04-22T08:37:10.259Z,31.78
2019-04-22T08:40:07.712Z,30.28
2019-04-22T08:42:55.270Z,30.91
2019-04-22T08:45:56.878Z,29.57
2019-04-22T08:49:05.652Z,30.86
2019-04-22T08:52:16.238Z,29.93
2019-04-22T08:55:26.243Z,29.39
2019-04-22T08:58:28.031Z,28.35
2019-04-22T09:04:37.126Z,28.27
2019-04-22T09:07:48.935Z,27.87
2019-04-22T09:10:48.993Z,28.23
2019-04-22T09:14:08.779Z,26.92
2019-04-22T09:17:03.795Z,27.87
2019-04-22T09:20:18.368Z,26.81
2019-04-22T09:23:23.657Z,26.85
2019-04-22T09:26:24.009Z,26.52
2019-04-22T09:29:34.130Z,27.29
2019-04-22T09:32:38.768Z,26.04
2019-04-22T09:35:45.017Z,25.96
2019-04-22T09:38:48.659Z,27.08
2019-04-22T09:41:59.767Z,27.02
2019-04-22T09:45:10.850Z,26.29
2019-04-22T09:48:23.703Z,26.51
2019-04-22T09:51:26.892Z,25.26
2019-04-22T09:54:37.010Z,25.03
2019-04-22T09:57:37.833Z,23.60
2019-04-22T10:00:58.085Z,24.02
2019-04-22T10:07:08.135Z,25.10
2019-04-22T10:10:18.832Z,25.35
2019-04-22T10:13:19.044Z,23.61
2019-04-22T10:19:34.982Z,23.88
2019-04-22T10:22:39.760Z,25.56
2019-04-22T10:29:14.097Z,22.73
2019-04-22T10:32:05.409Z,23.29
2019-04-22T10:35:02.265Z,22.63
2019-04-22T10:37:58.499Z,23.54
2019-04-22T10:41:04.772Z,24.54
2019-04-22T10:44:10.930Z,22.07
2019-04-22T10:47:15.969Z,22.78
2019-04-22T10:50:23.017Z,23.15
2019-04-22T10:53:29.170Z,22.09
2019-04-22T10:56:34.831Z,21.25
2019-04-22T10:59:40.719Z,21.28
2019-04-22T11:02:55.967Z,22.39
2019-04-22T11:06:01.254Z,22.12
2019-04-22T11:09:10.434Z,22.08
2019-04-22T11:12:19.249Z,20.83
2019-04-22T11:15:22.416Z,22.57
2019-04-22T11:18:27.458Z,20.83
2019-04-22T11:21:31.904Z,24.12
2019-04-22T11:24:37.036Z,22.85
2019-04-22T11:27:44.186Z,22.51
2019-04-22T11:30:48.289Z,21.79
2019-04-22T11:33:54.448Z,22.76
2019-04-22T11:36:59.117Z,23.09
2019-04-22T11:40:15.832Z,22.96
2019-04-22T11:43:12.372Z,23.49
2019-04-22T11:46:17.681Z,23.41
2019-04-22T11:49:23.631Z,23.97
2019-04-22T11:52:28.828Z,24.48
2019-04-22T11:55:34.894Z,23.19
2019-04-22T11:58:39.741Z,22.77
2019-04-22T12:01:44.696Z,23.15
2019-04-22T12:04:49.747Z,22.53
2019-04-22T12:07:55.246Z,22.89
2019-04-22T12:11:02.666Z,24.03
2019-04-22T12:14:06.321Z,23.11
2019-04-22T12:17:11.372Z,23.18
2019-04-22T12:20:19.770Z,23.18
2019-04-22T12:23:25.171Z,24.90
2019-04-22T12:26:30.680Z,22.78
2019-04-22T12:29:35.446Z,23.77
2019-04-22T12:32:41.164Z,23.42
2019-04-22T12:35:46.425Z,21.65
2019-04-22T12:38:51.428Z,22.06
2019-04-22T12:41:56.293Z,23.28
2019-04-22T12:45:02.319Z,23.03
2019-04-22T12:48:08.498Z,22.23
2019-04-22T12:51:13.694Z,22.57
2019-04-22T12:54:19.338Z,22.22
2019-04-22T12:57:24.892Z,20.78
2019-04-22T13:00:30.223Z,22.19
2019-04-22T13:03:36.130Z,20.66
2019-04-22T13:06:42.002Z,20.10
2019-04-22T13:09:47.372Z,20.73
2019-04-22T13:12:53.045Z,19.77
2019-04-22T13:15:59.304Z,20.34
2019-04-22T13:19:07.720Z,21.52
2019-04-22T13:22:10.417Z,19.34
2019-04-22T13:25:17.698Z,19.35
2019-04-22T13:28:23.033Z,19.31
2019-04-22T13:31:28.894Z,20.43
2019-04-22T13:34:40.399Z,20.03
2019-04-22T13:37:41.007Z,20.65
2019-04-22T13:41:00.644Z,19.54
2019-04-22T13:43:51.897Z,20.04
2019-04-22T13:47:14.504Z,21.71
2019-04-22T13:50:52.167Z,20.05
2019-04-22T13:53:48.111Z,20.20
2019-04-22T13:56:38.798Z,19.76
2019-04-22T13:59:31.236Z,20.21
2019-04-22T14:02:28.709Z,20.88
2019-04-22T14:05:34.954Z,22.98
2019-04-22T14:08:40.866Z,20.30
2019-04-22T14:11:52.878Z,20.54
2019-04-22T14:14:52.629Z,21.64
2019-04-22T14:17:58.762Z,21.23
2019-04-22T14:21:04.969Z,22.40
2019-04-22T14:24:12.529Z,22.72
2019-04-22T14:27:27.906Z,23.72
2019-04-22T14:30:22.657Z,23.12
2019-04-22T14:33:27.893Z,23.20
2019-04-22T14:36:33.084Z,23.38
2019-04-22T14:39:38.039Z,24.21
2019-04-22T14:43:00.602Z,22.34
2019-04-22T14:46:15.483Z,21.67
2019-04-22T14:49:22.279Z,23.09
2019-04-22T14:52:22.740Z,22.58
2019-04-22T14:55:15.676Z,22.57
2019-04-22T14:58:17.143Z,23.04
2019-04-22T15:01:21.828Z,24.03
2019-04-22T15:04:26.895Z,23.40
2019-04-22T15:07:32.935Z,22.34
2019-04-22T15:10:38.136Z,23.46
2019-04-22T15:13:43.393Z,22.86
2019-04-22T15:17:00.775Z,23.34
2019-04-22T15:20:09.868Z,22.90
2019-04-22T15:23:14.866Z,21.94
2019-04-22T15:26:20.334Z,21.75
2019-04-22T15:29:25.398Z,22.06
2019-04-22T15:32:31.484Z,23.25
2019-04-22T15:35:37.602Z,21.84
2019-04-22T15:38:42.372Z,21.83
2019-04-22T15:41:57.965Z,21.55
2019-04-22T15:44:53.869Z,21.01
2019-04-22T15:47:59.883Z,21.00
2019-04-22T15:51:04.818Z,20.43
2019-04-22T15:54:09.774Z,20.90
2019-04-22T15:57:14.907Z,20.28
2019-04-22T16:00:33.163Z,20.00
2019-04-22T16:03:26.951Z,20.70
2019-04-22T16:06:31.976Z,20.52
2019-04-22T16:09:36.771Z,20.43
2019-04-22T16:12:52.030Z,20.82
2019-04-22T16:15:48.838Z,19.78
2019-04-22T16:18:54.216Z,20.30
2019-04-22T16:22:03.960Z,20.43
2019-04-22T16:25:11.258Z,20.55
2019-04-22T16:28:17.455Z,20.91
2019-04-22T16:31:22.079Z,21.15
2019-04-22T16:34:27.272Z,19.89
2019-04-22T16:37:32.761Z,19.77
2019-04-22T16:40:38.751Z,20.58
2019-04-22T16:43:44.637Z,19.82
2019-04-22T16:46:50.030Z,20.35
2019-04-22T16:49:55.296Z,20.03
2019-04-22T16:52:59.995Z,20.45
2019-04-22T16:56:04.884Z,19.54
2019-04-22T16:59:10.623Z,19.96
2019-04-22T17:02:32.991Z,20.06
2019-04-22T17:05:47.220Z,19.76
2019-04-22T17:08:52.866Z,20.46
2019-04-22T17:11:58.083Z,20.22
2019-04-22T17:15:08.090Z,20.19
2019-04-22T17:18:09.586Z,19.89
2019-04-22T17:21:14.810Z,20.52
2019-04-22T17:24:19.602Z,20.29
2019-04-22T17:27:24.397Z,19.79
2019-04-22T17:30:30.919Z,20.23
2019-04-22T17:33:36.987Z,21.12
2019-04-22T17:36:42.366Z,20.98
2019-04-22T17:40:04.373Z,20.51
2019-04-22T17:43:28.484Z,20.49
2019-04-22T17:46:29.211Z,20.81
2019-04-22T17:49:49.882Z,21.09
2019-04-22T17:53:07.190Z,21.19
2019-04-22T17:56:02.134Z,20.69
2019-04-22T17:59:02.669Z,21.36
2019-04-22T18:02:02.825Z,21.56
2019-04-22T18:05:01.154Z,21.38
2019-04-22T18:11:34.041Z,21.87
2019-04-22T18:18:01.748Z,22.06
2019-04-22T18:20:39.481Z,22.28
2019-04-22T18:23:43.727Z,23.17
2019-04-22T18:26:57.646Z,23.53
2019-04-22T18:30:02.338Z,22.58
2019-04-22T18:33:15.819Z,23.11
2019-04-22T18:36:17.402Z,23.17
2019-04-22T18:39:27.206Z,23.95
2019-04-22T18:42:25.614Z,23.71
2019-04-22T18:45:47.246Z,24.80
2019-04-22T18:48:46.181Z,23.99
2019-04-22T18:52:02.873Z,25.52
2019-04-22T18:55:07.310Z,25.83
2019-04-22T18:58:08.908Z,28.00
2019-04-22T19:01:03.891Z,28.67
2019-04-22T19:04:14.214Z,28.60
2019-04-22T19:07:44.258Z,29.48
2019-04-22T19:10:53.788Z,28.85
2019-04-22T19:14:03.732Z,30.52
2019-04-22T19:17:08.247Z,31.23
2019-04-22T19:20:09.431Z,30.68
2019-04-22T19:23:16.415Z,31.22
2019-04-22T19:26:23.294Z,31.81
2019-04-22T19:29:20.351Z,32.29
2019-04-22T19:32:25.298Z,33.72
2019-04-22T19:35:29.928Z,34.41
2019-04-22T19:38:28.650Z,34.96
2019-04-22T19:41:52.014Z,36.15
2019-04-22T19:44:54.772Z,35.94
2019-04-22T19:48:06.566Z,36.04
2019-04-22T19:51:12.869Z,35.57
2019-04-22T19:54:15.823Z,35.92
2019-04-22T19:57:20.318Z,35.94
2019-04-22T20:00:38.783Z,35.78
2019-04-22T20:03:57.887Z,34.43
2019-04-22T20:06:59.342Z,34.88
2019-04-22T20:10:08.863Z,34.43
2019-04-22T20:13:15.150Z,35.29
2019-04-22T20:16:06.219Z,34.55
2019-04-22T20:19:32.007Z,32.73
2019-04-22T20:22:30.212Z,32.55
2019-04-22T20:25:34.949Z,33.33
2019-04-22T20:28:43.073Z,33.64
2019-04-22T20:31:54.509Z,33.79
2019-04-22T20:35:02.985Z,32.91
2019-04-22T20:38:04.159Z,33.33
2019-04-22T20:41:05.679Z,33.48
2019-04-22T20:44:16.351Z,34.10
2019-04-22T20:47:20.668Z,33.29
2019-04-22T20:50:31.477Z,33.96
2019-04-22T20:53:39.767Z,33.68
2019-04-22T20:56:36.811Z,34.14
2019-04-22T20:59:48.121Z,34.08
2019-04-22T21:02:46.948Z,34.43
2019-04-22T21:05:53.003Z,33.85
2019-04-22T21:09:15.539Z,34.15
2019-04-22T21:12:09.027Z,34.17
2019-04-22T21:15:26.279Z,34.35
2019-04-22T21:18:26.583Z,34.15
2019-04-22T21:21:38.552Z,35.17
2019-04-22T21:24:34.780Z,34.26
2019-04-22T21:30:48.130Z,34.90
2019-04-22T21:33:59.432Z,35.10
2019-04-22T21:37:07.558Z,35.50
2019-04-22T21:40:10.737Z,35.44
2019-04-22T21:43:19.736Z,36.02
2019-04-22T21:46:23.151Z,36.11
2019-04-22T21:49:29.813Z,36.07
2019-04-22T21:52:35.865Z,36.20
2019-04-22T21:55:43.591Z,36.30
2019-04-22T21:58:54.566Z,36.41
2019-04-22T22:02:07.198Z,36.68
2019-04-22T22:05:00.057Z,36.59
2019-04-22T22:08:21.580Z,36.56
2019-04-22T22:11:22.818Z,36.36
2019-04-22T22:14:22.471Z,36.82
2019-04-22T22:17:31.634Z,37.11
2019-04-22T22:20:45.253Z,37.10
2019-04-22T22:23:44.037Z,37.15
2019-04-22T22:26:55.562Z,36.81
2019-04-22T22:30:06.648Z,37.05
2019-04-22T22:33:05.717Z,37.28
2019-04-22T22:36:05.148Z,37.56
2019-04-22T22:39:11.434Z,38.03
2019-04-22T22:42:03.737Z,38.23
2019-04-22T22:45:19.990Z,38.73
2019-04-22T22:48:41.295Z,38.67
2019-04-22T22:54:53.117Z,38.47
2019-04-22T22:57:58.507Z,39.75
2019-04-22T23:00:57.993Z,37.68
2019-04-22T23:04:09.884Z,39.00
2019-04-22T23:07:17.251Z,38.13
2019-04-22T23:10:17.536Z,37.86
2019-04-22T23:13:29.744Z,38.23
2019-04-22T23:16:22.247Z,38.24
2019-04-22T23:19:19.901Z,37.89
2019-04-22T23:22:34.297Z,37.77
2019-04-22T23:26:03.840Z,37.86
2019-04-22T23:29:07.210Z,38.10
2019-04-22T23:32:08.822Z,38.79
2019-04-22T23:35:36.594Z,38.81
2019-04-22T23:38:50.803Z,39.15
2019-04-22T23:42:00.373Z,38.48
2019-04-22T23:45:07.408Z,38.09
2019-04-22T23:48:04.614Z,39.00
2019-04-22T23:51:16.689Z,39.01
2019-04-22T23:54:27.117Z,38.61
2019-04-22T23:57:34.277Z,38.97
